Time;durP1;ratioP1;P1;durP2;ratioP2;P2;SDS_P1;SDS_P2;PMS_P1;PMS_P2;Temp;Humidity;BMP_temperature;BMP_pressure;BME280_temperature;BME280_humidity;BME280_pressure;Samples;Min_cycle;Max_cycle;Signal;HPM_P1;HPM_P2
2021/12/06 00:01:59;;;;;;;;;;;10.10;60.40;;;;;;6220322;23;19931;-91
2021/12/06 00:04:26;;;;;;;;;;;10.00;60.50;;;;;;6194154;23;20325;-91
2021/12/06 00:06:53;;;;;;;;;;;10.00;60.40;;;;;;6193359;23;19914;-91
2021/12/06 00:09:20;;;;;;;;;;;10.00;60.50;;;;;;6219257;23;19986;-90
2021/12/06 00:11:46;;;;;;;;;;;10.00;60.50;;;;;;6192553;23;19919;-91
2021/12/06 00:14:11;;;;;;;;;;;9.90;60.50;;;;;;6219191;23;19908;-91
2021/12/06 00:16:37;;;;;;;;;;;9.90;60.50;;;;;;6217755;23;19908;-91
2021/12/06 00:19:03;;;;;;;;;;;9.80;60.40;;;;;;6190697;23;19959;-91
2021/12/06 00:21:29;;;;;;;;;;;9.80;60.40;;;;;;6190800;23;19912;-91
2021/12/06 00:23:55;;;;;;;;;;;9.80;60.60;;;;;;6190919;23;20210;-91
2021/12/06 00:26:20;;;;;;;;;;;9.70;60.60;;;;;;6190119;23;19916;-90
2021/12/06 00:28:46;;;;;;;;;;;9.70;60.80;;;;;;6189991;23;20340;-91
2021/12/06 00:31:13;;;;;;;;;;;9.70;60.80;;;;;;6190126;23;20039;-91
2021/12/06 00:33:38;;;;;;;;;;;9.70;60.80;;;;;;6217861;23;19911;-92
2021/12/06 00:36:07;;;;;;;;;;;9.70;60.70;;;;;;6202495;23;19920;-92
2021/12/06 00:38:33;;;;;;;;;;;9.70;60.70;;;;;;6243927;23;20004;-92
2021/12/06 00:40:59;;;;;;;;;;;9.60;60.80;;;;;;6220209;23;19931;-92
2021/12/06 00:43:24;;;;;;;;;;;9.60;60.80;;;;;;6219545;23;19912;-92
2021/12/06 00:45:50;;;;;;;;;;;9.60;60.80;;;;;;6219213;23;20236;-91
2021/12/06 00:48:15;;;;;;;;;;;9.60;60.80;;;;;;6244896;23;19892;-92
2021/12/06 00:50:42;;;;;;;;;;;9.60;60.80;;;;;;6220689;23;20304;-92
2021/12/06 00:53:08;;;;;;;;;;;9.60;60.90;;;;;;6243967;23;19928;-91
2021/12/06 00:55:34;;;;;;;;;;;9.60;60.90;;;;;;6241290;23;19927;-92
2021/12/06 00:58:00;;;;;;;;;;;9.60;60.90;;;;;;6240491;23;19915;-92
2021/12/06 01:00:27;;;;;;;;;;;9.60;60.90;;;;;;6239825;23;19912;-91
2021/12/06 01:02:54;;;;;;;;;;;9.60;61.00;;;;;;6218290;23;19983;-92
2021/12/06 01:05:22;;;;;;;;;;;9.60;61.10;;;;;;6240898;23;19971;-92
2021/12/06 01:07:48;;;;;;;;;;;9.60;61.10;;;;;;6241387;23;19904;-91
2021/12/06 01:10:14;;;;;;;;;;;9.60;61.10;;;;;;6241161;23;19908;-91
2021/12/06 01:12:40;;;;;;;;;;;9.70;61.20;;;;;;6215724;23;19919;-91
2021/12/06 01:15:07;;;;;;;;;;;9.70;61.30;;;;;;6218349;23;19912;-92
2021/12/06 01:17:32;;;;;;;;;;;9.70;61.30;;;;;;6240962;22;19904;-92
2021/12/06 01:19:58;;;;;;;;;;;9.70;61.40;;;;;;6242260;23;20301;-92
2021/12/06 01:22:40;;;;;;;;;;;9.80;61.40;;;;;;6243917;23;19912;-92
2021/12/06 01:25:17;;;;;;;;;;;9.80;61.40;;;;;;6243372;23;19919;-90
2021/12/06 01:28:02;;;;;;;;;;;9.90;61.40;;;;;;6242597;23;19946;-90
2021/12/06 01:41:06;;;;;;;;;;;9.90;61.30;;;;;;6218898;23;20403;-89
2021/12/06 01:43:32;;;;;;;;;;;9.90;61.30;;;;;;6191937;23;19908;-89
2021/12/06 01:45:57;;;;;;;;;;;10.00;61.20;;;;;;6192715;23;20197;-90
2021/12/06 01:48:23;;;;;;;;;;;10.00;61.10;;;;;;6192294;23;19915;-90
2021/12/06 01:50:48;;;;;;;;;;;10.00;61.00;;;;;;6191863;23;20221;-90
2021/12/06 01:53:13;;;;;;;;;;;10.10;61.00;;;;;;6191244;23;19904;-89
2021/12/06 01:55:40;;;;;;;;;;;10.10;61.00;;;;;;6220346;23;19927;-89
2021/12/06 01:58:06;;;;;;;;;;;10.10;60.90;;;;;;6221354;23;19911;-90
2021/12/06 02:00:34;;;;;;;;;;;10.10;60.70;;;;;;6222222;23;19916;-91
2021/12/06 02:03:00;;;;;;;;;;;10.10;60.80;;;;;;6195676;23;19912;-91
2021/12/06 02:05:25;;;;;;;;;;;10.10;60.90;;;;;;6194488;23;19984;-92
2021/12/06 02:07:51;;;;;;;;;;;10.10;60.80;;;;;;6221379;23;19915;-92
2021/12/06 02:10:16;;;;;;;;;;;10.00;60.70;;;;;;6194937;23;19907;-91
2021/12/06 02:12:44;;;;;;;;;;;10.00;60.60;;;;;;6220320;23;19916;-90
2021/12/06 02:19:04;;;;;;;;;;;9.90;60.80;;;;;;6128278;23;19936;-91
2021/12/06 02:21:17;;;;;;;;;;;9.90;60.90;;;;;;6113642;23;19913;-91
2021/12/06 02:23:43;;;;;;;;;;;9.90;61.00;;;;;;6168970;23;19926;-91
2021/12/06 02:26:08;;;;;;;;;;;9.90;61.10;;;;;;6220016;23;19955;-91
2021/12/06 02:28:33;;;;;;;;;;;9.90;61.20;;;;;;6193034;23;19904;-91
2021/12/06 02:30:59;;;;;;;;;;;9.90;61.20;;;;;;6192828;23;20021;-91
2021/12/06 02:33:25;;;;;;;;;;;9.90;61.20;;;;;;6192294;23;19908;-91
2021/12/06 02:35:52;;;;;;;;;;;9.90;61.20;;;;;;6192074;23;19920;-92
2021/12/06 02:38:18;;;;;;;;;;;9.80;61.20;;;;;;6192388;23;19904;-91
2021/12/06 02:40:43;;;;;;;;;;;9.90;61.20;;;;;;6192909;23;19922;-91
2021/12/06 02:43:09;;;;;;;;;;;9.80;61.20;;;;;;6218262;23;19958;-91
2021/12/06 02:45:35;;;;;;;;;;;9.80;61.10;;;;;;6192421;23;20580;-90
2021/12/06 02:48:02;;;;;;;;;;;9.80;61.20;;;;;;6219919;23;19918;-91
2021/12/06 02:50:29;;;;;;;;;;;9.80;61.20;;;;;;6220276;23;19922;-91
2021/12/06 02:52:55;;;;;;;;;;;9.80;61.20;;;;;;6219846;23;19928;-91
2021/12/06 02:55:38;;;;;;;;;;;9.80;61.10;;;;;;6219446;23;19908;-92
2021/12/06 02:58:18;;;;;;;;;;;9.80;61.20;;;;;;6193877;23;19910;-91
2021/12/06 03:00:46;;;;;;;;;;;9.80;61.10;;;;;;6219929;23;19922;-92
2021/12/06 03:03:12;;;;;;;;;;;9.80;61.00;;;;;;6219972;23;19903;-91
2021/12/06 03:05:37;;;;;;;;;;;9.80;61.20;;;;;;6194006;23;20015;-90
2021/12/06 03:08:04;;;;;;;;;;;9.90;61.40;;;;;;6193814;23;19911;-90
2021/12/06 03:10:29;;;;;;;;;;;9.90;61.30;;;;;;6220607;23;19970;-90
2021/12/06 03:12:55;;;;;;;;;;;10.00;61.30;;;;;;6193427;23;19908;-91
2021/12/06 03:15:21;;;;;;;;;;;10.00;61.20;;;;;;6219803;23;20221;-90
2021/12/06 03:17:47;;;;;;;;;;;9.90;61.30;;;;;;6219616;23;19982;-91
2021/12/06 03:20:14;;;;;;;;;;;10.00;61.30;;;;;;6218132;23;19908;-90
2021/12/06 03:22:44;;;;;;;;;;;10.00;61.40;;;;;;6194261;23;19970;-90
2021/12/06 03:25:10;;;;;;;;;;;10.00;61.20;;;;;;6194720;23;19931;-90
2021/12/06 03:27:36;;;;;;;;;;;10.00;61.20;;;;;;6193856;23;20004;-89
2021/12/06 03:30:03;;;;;;;;;;;10.00;61.40;;;;;;6219900;23;19989;-88
2021/12/06 03:32:28;;;;;;;;;;;10.10;61.40;;;;;;6192762;23;19946;-89
2021/12/06 03:34:54;;;;;;;;;;;10.10;61.40;;;;;;6219436;23;19908;-90
2021/12/06 03:37:19;;;;;;;;;;;10.20;61.40;;;;;;6219535;23;19974;-92
2021/12/06 03:39:47;;;;;;;;;;;10.20;61.30;;;;;;6221742;23;19908;-92
2021/12/06 03:42:13;;;;;;;;;;;10.20;61.40;;;;;;6222102;23;19938;-92
2021/12/06 03:44:39;;;;;;;;;;;10.30;61.50;;;;;;6194784;23;19908;-91
2021/12/06 03:47:07;;;;;;;;;;;10.30;61.50;;;;;;6194217;23;19919;-91
2021/12/06 03:49:32;;;;;;;;;;;10.30;61.40;;;;;;6196659;23;19971;-91
2021/12/06 03:51:58;;;;;;;;;;;10.40;61.40;;;;;;6195674;23;19916;-92
2021/12/06 03:54:25;;;;;;;;;;;10.40;61.20;;;;;;6194109;23;19911;-91
2021/12/06 03:56:51;;;;;;;;;;;10.40;61.10;;;;;;6194666;23;20364;-91
2021/12/06 03:59:17;;;;;;;;;;;10.40;61.10;;;;;;6195442;23;19916;-92
2021/12/06 04:01:42;;;;;;;;;;;10.30;61.10;;;;;;6194785;23;19912;-92
2021/12/06 04:04:08;;;;;;;;;;;10.40;61.20;;;;;;6194851;23;20293;-91
2021/12/06 04:06:35;;;;;;;;;;;10.40;61.20;;;;;;6193689;23;19916;-91
2021/12/06 04:09:00;;;;;;;;;;;10.40;61.10;;;;;;6194064;23;19960;-91
2021/12/06 04:11:26;;;;;;;;;;;10.40;61.30;;;;;;6194195;23;20331;-92
2021/12/06 04:13:52;;;;;;;;;;;10.40;61.30;;;;;;6194217;23;19903;-91
2021/12/06 04:16:17;;;;;;;;;;;10.50;61.40;;;;;;6221086;23;19931;-92
2021/12/06 04:18:43;;;;;;;;;;;10.50;61.20;;;;;;6194080;23;19919;-91
2021/12/06 04:21:09;;;;;;;;;;;10.50;61.20;;;;;;6194141;23;19923;-92
2021/12/06 04:23:35;;;;;;;;;;;10.50;61.20;;;;;;6221405;23;19950;-91
2021/12/06 04:26:01;;;;;;;;;;;10.60;61.20;;;;;;6194478;23;19916;-92
2021/12/06 04:28:29;;;;;;;;;;;10.50;61.20;;;;;;6194536;23;20635;-92
2021/12/06 04:30:55;;;;;;;;;;;10.60;61.30;;;;;;6194946;23;19919;-92
2021/12/06 04:33:20;;;;;;;;;;;10.60;61.20;;;;;;6192589;23;20227;-90
2021/12/06 04:35:46;;;;;;;;;;;10.60;61.30;;;;;;6218471;23;19916;-90
2021/12/06 04:38:12;;;;;;;;;;;10.60;61.40;;;;;;6219679;23;19939;-91
2021/12/06 04:40:37;;;;;;;;;;;10.60;61.20;;;;;;6220121;23;19916;-91
2021/12/06 04:43:03;;;;;;;;;;;10.70;61.20;;;;;;6220076;23;20251;-92
2021/12/06 04:45:29;;;;;;;;;;;10.70;61.20;;;;;;6219358;23;19966;-91
2021/12/06 04:47:55;;;;;;;;;;;10.70;61.30;;;;;;6220414;23;19904;-91
2021/12/06 04:50:24;;;;;;;;;;;10.70;61.30;;;;;;6219998;23;19915;-92
2021/12/06 04:52:50;;;;;;;;;;;10.70;61.30;;;;;;6194005;23;19908;-91
2021/12/06 04:55:20;;;;;;;;;;;10.70;61.20;;;;;;6193030;23;20382;-91
2021/12/06 04:57:46;;;;;;;;;;;10.60;61.20;;;;;;6195485;23;20369;-91
2021/12/06 05:00:15;;;;;;;;;;;10.60;61.20;;;;;;6222138;23;19915;-90
2021/12/06 05:02:41;;;;;;;;;;;10.60;61.10;;;;;;6221591;23;20475;-91
2021/12/06 05:05:17;;;;;;;;;;;10.60;61.00;;;;;;6196473;23;19919;-91
2021/12/06 05:07:46;;;;;;;;;;;10.60;61.00;;;;;;6197034;23;19908;-92
2021/12/06 05:10:12;;;;;;;;;;;10.60;61.00;;;;;;6195370;23;19904;-91
2021/12/06 05:12:38;;;;;;;;;;;10.60;60.90;;;;;;6221855;23;20309;-90
2021/12/06 05:15:04;;;;;;;;;;;10.60;60.90;;;;;;6221055;23;20007;-90
2021/12/06 05:17:30;;;;;;;;;;;10.60;61.00;;;;;;6193296;23;19951;-91
2021/12/06 05:19:55;;;;;;;;;;;10.60;61.00;;;;;;6221036;23;20197;-90
2021/12/06 05:22:21;;;;;;;;;;;10.60;60.90;;;;;;6194175;23;19915;-90
2021/12/06 05:24:47;;;;;;;;;;;10.60;60.80;;;;;;6193769;23;19919;-89
2021/12/06 05:27:12;;;;;;;;;;;10.50;60.90;;;;;;6194515;23;20313;-92
2021/12/06 05:29:38;;;;;;;;;;;10.50;60.90;;;;;;6221941;23;19958;-92
2021/12/06 05:32:04;;;;;;;;;;;10.50;60.80;;;;;;6224214;23;19955;-93
2021/12/06 05:34:40;;;;;;;;;;;10.40;60.70;;;;;;6198247;23;19915;-92
2021/12/06 05:37:07;;;;;;;;;;;10.40;60.70;;;;;;6198252;23;19927;-93
2021/12/06 05:39:33;;;;;;;;;;;10.40;60.60;;;;;;6196814;23;19908;-93
2021/12/06 05:42:03;;;;;;;;;;;10.40;60.70;;;;;;6197891;23;19923;-93
2021/12/06 05:44:29;;;;;;;;;;;10.40;60.60;;;;;;6197570;23;19915;-92
2021/12/06 05:46:55;;;;;;;;;;;10.40;60.80;;;;;;6222038;23;19995;-91
2021/12/06 05:49:21;;;;;;;;;;;10.40;60.70;;;;;;6198725;23;19912;-93
2021/12/06 05:51:46;;;;;;;;;;;10.40;60.70;;;;;;6198867;23;19916;-93
2021/12/06 05:54:12;;;;;;;;;;;10.40;60.60;;;;;;6197966;23;19892;-93
2021/12/06 05:56:37;;;;;;;;;;;10.40;60.50;;;;;;6224618;23;19916;-93
2021/12/06 05:59:03;;;;;;;;;;;10.40;60.60;;;;;;6198352;23;19991;-91
2021/12/06 06:01:30;;;;;;;;;;;10.40;60.70;;;;;;6199519;23;20214;-93
2021/12/06 06:04:01;;;;;;;;;;;10.40;60.50;;;;;;6200351;23;19904;-92
2021/12/06 06:06:31;;;;;;;;;;;10.40;60.50;;;;;;6199382;23;19939;-92
2021/12/06 06:08:57;;;;;;;;;;;10.40;60.60;;;;;;6224059;23;19911;-92
2021/12/06 06:11:22;;;;;;;;;;;10.40;60.60;;;;;;6225088;23;19964;-92
2021/12/06 06:13:48;;;;;;;;;;;10.40;60.70;;;;;;6196530;23;19909;-93
2021/12/06 06:16:18;;;;;;;;;;;10.40;60.80;;;;;;6223399;23;19919;-92
2021/12/06 06:18:43;;;;;;;;;;;10.50;60.70;;;;;;6197793;23;19904;-92
2021/12/06 06:21:09;;;;;;;;;;;10.40;60.70;;;;;;6197015;23;19923;-91
2021/12/06 06:23:35;;;;;;;;;;;10.40;60.60;;;;;;6196036;23;19903;-92
2021/12/06 06:26:00;;;;;;;;;;;10.40;60.40;;;;;;6194104;23;20304;-92
2021/12/06 06:28:29;;;;;;;;;;;10.40;60.50;;;;;;6193623;23;19999;-91
2021/12/06 06:30:55;;;;;;;;;;;10.30;60.40;;;;;;6194282;23;19912;-91
2021/12/06 06:33:20;;;;;;;;;;;10.40;60.20;;;;;;6194707;23;19951;-92
2021/12/06 06:35:46;;;;;;;;;;;10.30;60.20;;;;;;6194058;23;19916;-93
2021/12/06 06:38:12;;;;;;;;;;;10.30;60.30;;;;;;6192892;23;19971;-92
2021/12/06 06:40:37;;;;;;;;;;;10.30;60.40;;;;;;6195686;23;19912;-93
2021/12/06 06:43:03;;;;;;;;;;;10.30;60.20;;;;;;6195084;23;19908;-95
2021/12/06 06:45:28;;;;;;;;;;;10.40;60.10;;;;;;6195435;23;20291;-93
2021/12/06 06:47:54;;;;;;;;;;;10.30;60.10;;;;;;6194000;23;19966;-92
2021/12/06 06:50:20;;;;;;;;;;;10.30;60.10;;;;;;6193063;23;19904;-93
2021/12/06 06:52:46;;;;;;;;;;;10.30;60.30;;;;;;6192910;23;19911;-94
2021/12/06 06:55:12;;;;;;;;;;;10.30;60.30;;;;;;6191518;23;19903;-92
2021/12/06 06:57:38;;;;;;;;;;;10.20;60.30;;;;;;6220077;23;19978;-93
2021/12/06 07:00:05;;;;;;;;;;;10.30;60.40;;;;;;6193175;23;19990;-92
2021/12/06 07:02:30;;;;;;;;;;;10.30;60.30;;;;;;6220033;23;19908;-93
2021/12/06 07:04:57;;;;;;;;;;;10.30;60.20;;;;;;6219536;23;19904;-93
2021/12/06 07:07:22;;;;;;;;;;;10.20;60.20;;;;;;6220779;23;19912;-90
2021/12/06 07:09:48;;;;;;;;;;;10.20;60.20;;;;;;6220227;23;20214;-93
2021/12/06 07:12:17;;;;;;;;;;;10.20;60.30;;;;;;6192550;23;19962;-92
2021/12/06 07:14:43;;;;;;;;;;;10.20;60.50;;;;;;6192720;23;19904;-94
2021/12/06 07:17:09;;;;;;;;;;;10.10;60.30;;;;;;6192285;23;19934;-91
2021/12/06 07:19:35;;;;;;;;;;;10.10;60.60;;;;;;6219058;23;19912;-93
2021/12/06 07:22:02;;;;;;;;;;;10.20;60.50;;;;;;6193405;23;19915;-92
2021/12/06 07:24:28;;;;;;;;;;;10.20;60.50;;;;;;6192916;23;20221;-91
2021/12/06 07:26:53;;;;;;;;;;;10.10;60.60;;;;;;6193521;23;19930;-91
2021/12/06 07:29:19;;;;;;;;;;;10.20;60.60;;;;;;6220541;23;19927;-92
2021/12/06 07:31:44;;;;;;;;;;;10.20;60.60;;;;;;6196498;23;19920;-92
2021/12/06 07:34:10;;;;;;;;;;;10.20;60.70;;;;;;6192728;23;19908;-90
2021/12/06 07:36:35;;;;;;;;;;;10.20;60.70;;;;;;6192276;23;19970;-92
2021/12/06 07:39:01;;;;;;;;;;;10.20;60.70;;;;;;6193595;23;20231;-91
2021/12/06 07:41:28;;;;;;;;;;;10.20;60.60;;;;;;6192850;23;19916;-94
2021/12/06 07:43:55;;;;;;;;;;;10.30;60.60;;;;;;6218354;23;19950;-92
2021/12/06 07:46:21;;;;;;;;;;;10.30;60.60;;;;;;6192895;23;20289;-92
2021/12/06 07:48:52;;;;;;;;;;;10.30;60.60;;;;;;6191961;23;19978;-93
2021/12/06 07:51:18;;;;;;;;;;;10.30;60.30;;;;;;6193153;23;20544;-92
2021/12/06 07:53:43;;;;;;;;;;;10.30;60.30;;;;;;6220194;23;19907;-92
2021/12/06 07:56:09;;;;;;;;;;;10.30;60.20;;;;;;6194165;23;20058;-92
2021/12/06 07:58:35;;;;;;;;;;;10.30;60.20;;;;;;6193640;23;19907;-92
2021/12/06 08:01:00;;;;;;;;;;;10.30;60.30;;;;;;6194079;23;20228;-92
2021/12/06 08:03:30;;;;;;;;;;;10.30;60.20;;;;;;6219664;23;19950;-92
2021/12/06 08:05:56;;;;;;;;;;;10.30;60.30;;;;;;6193567;23;19947;-93
2021/12/06 08:08:23;;;;;;;;;;;10.30;60.40;;;;;;6193889;23;19911;-92
2021/12/06 08:10:51;;;;;;;;;;;10.30;60.10;;;;;;6193068;23;19912;-92
2021/12/06 08:13:18;;;;;;;;;;;10.30;60.30;;;;;;6192926;23;19914;-92
2021/12/06 08:15:44;;;;;;;;;;;10.30;60.40;;;;;;6219231;23;19916;-92
2021/12/06 08:18:11;;;;;;;;;;;10.30;60.50;;;;;;6192933;23;20271;-94
2021/12/06 08:20:37;;;;;;;;;;;10.30;60.40;;;;;;6194292;23;19912;-92
2021/12/06 08:23:04;;;;;;;;;;;10.30;60.20;;;;;;6193325;23;19977;-91
2021/12/06 08:25:29;;;;;;;;;;;10.30;60.30;;;;;;6220430;23;19983;-93
2021/12/06 08:27:55;;;;;;;;;;;10.30;60.10;;;;;;6220600;23;20319;-92
2021/12/06 08:30:22;;;;;;;;;;;10.30;60.30;;;;;;6193408;23;19908;-92
2021/12/06 08:32:52;;;;;;;;;;;10.30;60.20;;;;;;6194930;23;19918;-92
2021/12/06 08:35:18;;;;;;;;;;;10.40;60.40;;;;;;6194576;23;19903;-92
2021/12/06 08:37:45;;;;;;;;;;;10.40;60.50;;;;;;6196527;23;19986;-93
2021/12/06 08:40:10;;;;;;;;;;;10.50;60.40;;;;;;6222408;23;19908;-93
2021/12/06 08:42:36;;;;;;;;;;;10.50;60.30;;;;;;6196321;23;19938;-92
2021/12/06 08:45:02;;;;;;;;;;;10.50;60.30;;;;;;6194919;23;20477;-92
2021/12/06 08:47:27;;;;;;;;;;;10.50;60.40;;;;;;6195288;23;20018;-92
2021/12/06 08:49:53;;;;;;;;;;;10.60;60.50;;;;;;6222418;23;19908;-93
2021/12/06 08:52:19;;;;;;;;;;;10.60;60.30;;;;;;6194683;23;19920;-93
2021/12/06 08:54:44;;;;;;;;;;;10.60;60.20;;;;;;6220955;23;19892;-93
2021/12/06 08:57:10;;;;;;;;;;;10.70;60.30;;;;;;6221891;23;19916;-92
2021/12/06 08:59:36;;;;;;;;;;;10.70;60.40;;;;;;6193930;23;19904;-91
2021/12/06 09:02:01;;;;;;;;;;;10.70;60.50;;;;;;6221801;23;19919;-91
2021/12/06 09:04:31;;;;;;;;;;;10.80;60.60;;;;;;6221562;23;19908;-93
2021/12/06 09:06:58;;;;;;;;;;;10.80;60.60;;;;;;6194715;23;19920;-94
2021/12/06 09:09:27;;;;;;;;;;;10.90;60.60;;;;;;6194097;23;19907;-93
2021/12/06 09:11:53;;;;;;;;;;;10.90;60.70;;;;;;6220259;23;20232;-93
2021/12/06 09:14:18;;;;;;;;;;;11.00;60.80;;;;;;6194277;23;19914;-92
2021/12/06 09:16:44;;;;;;;;;;;11.10;60.90;;;;;;6221049;23;19935;-92
2021/12/06 09:19:11;;;;;;;;;;;11.10;61.00;;;;;;6196848;23;19986;-93
2021/12/06 09:21:38;;;;;;;;;;;11.20;61.00;;;;;;6196468;23;19940;-94
2021/12/06 09:24:04;;;;;;;;;;;11.30;60.80;;;;;;6196693;23;19904;-93
2021/12/06 09:26:30;;;;;;;;;;;11.30;61.00;;;;;;6223776;23;20447;-93
2021/12/06 09:28:57;;;;;;;;;;;11.40;60.70;;;;;;6223199;23;19986;-93
2021/12/06 09:31:26;;;;;;;;;;;11.40;60.50;;;;;;6224953;23;19920;-92
2021/12/06 09:33:52;;;;;;;;;;;11.50;60.20;;;;;;6196499;23;19908;-91
2021/12/06 09:36:19;;;;;;;;;;;11.50;59.90;;;;;;6195968;23;19916;-92
2021/12/06 09:38:45;;;;;;;;;;;11.50;59.80;;;;;;6195497;23;20293;-91
2021/12/06 09:41:19;;;;;;;;;;;11.50;59.80;;;;;;6195919;23;20528;-93
2021/12/06 09:43:44;;;;;;;;;;;11.60;60.00;;;;;;6195422;23;19983;-94
2021/12/06 09:46:10;;;;;;;;;;;11.70;59.80;;;;;;6196542;23;19935;-92
2021/12/06 09:48:39;;;;;;;;;;;11.60;60.00;;;;;;6222617;23;19904;-93
2021/12/06 09:51:09;;;;;;;;;;;11.70;59.70;;;;;;6195878;23;19911;-93
2021/12/06 09:53:36;;;;;;;;;;;11.70;60.10;;;;;;6195390;23;19904;-94
2021/12/06 09:56:04;;;;;;;;;;;11.80;60.30;;;;;;6195672;23;20320;-92
2021/12/06 09:58:30;;;;;;;;;;;11.90;60.10;;;;;;6195539;23;19904;-93
2021/12/06 10:00:58;;;;;;;;;;;11.90;59.70;;;;;;6221031;23;19915;-93
2021/12/06 10:03:28;;;;;;;;;;;12.00;59.70;;;;;;6196046;23;19915;-93
2021/12/06 10:06:00;;;;;;;;;;;12.00;59.30;;;;;;6222131;23;19939;-93
2021/12/06 10:08:26;;;;;;;;;;;12.00;59.00;;;;;;6222188;23;19911;-91
2021/12/06 10:10:51;;;;;;;;;;;11.90;59.20;;;;;;6194166;23;20002;-93
2021/12/06 10:13:17;;;;;;;;;;;12.00;59.50;;;;;;6195141;23;20288;-92
2021/12/06 10:15:43;;;;;;;;;;;12.10;59.40;;;;;;6222002;23;19912;-92
2021/12/06 10:18:10;;;;;;;;;;;12.10;59.00;;;;;;6196914;23;19961;-93
2021/12/06 10:20:35;;;;;;;;;;;12.10;58.40;;;;;;6194054;23;19912;-92
2021/12/06 10:23:02;;;;;;;;;;;12.10;58.60;;;;;;6223284;23;19904;-94
2021/12/06 10:25:39;;;;;;;;;;;12.00;58.40;;;;;;6194895;23;19912;-93
2021/12/06 10:28:05;;;;;;;;;;;12.00;58.30;;;;;;6194760;23;19930;-94
2021/12/06 10:30:32;;;;;;;;;;;11.90;58.20;;;;;;6193607;23;19938;-92
2021/12/06 10:33:12;;;;;;;;;;;11.90;58.30;;;;;;6195206;23;19930;-94
2021/12/06 10:35:40;;;;;;;;;;;11.90;57.80;;;;;;6194433;23;19915;-93
2021/12/06 10:38:06;;;;;;;;;;;11.80;58.30;;;;;;6221212;23;19986;-92
2021/12/06 10:40:32;;;;;;;;;;;11.90;58.90;;;;;;6219951;23;19915;-92
2021/12/06 10:43:00;;;;;;;;;;;11.90;59.30;;;;;;6196901;23;19947;-93
2021/12/06 10:45:30;;;;;;;;;;;12.10;59.80;;;;;;6219879;23;19904;-94
2021/12/06 10:48:15;;;;;;;;;;;12.20;59.90;;;;;;6192704;23;19923;-92
2021/12/06 10:51:07;;;;;;;;;;;12.30;59.80;;;;;;6194060;23;20236;-93
2021/12/06 10:53:38;;;;;;;;;;;12.40;59.80;;;;;;6211057;23;19974;-92
2021/12/06 10:56:09;;;;;;;;;;;12.50;59.80;;;;;;6192704;23;19955;-93
2021/12/06 10:58:34;;;;;;;;;;;12.50;59.10;;;;;;6219877;23;19982;-92
2021/12/06 11:01:05;;;;;;;;;;;12.60;59.10;;;;;;6193651;23;19908;-93
2021/12/06 11:03:33;;;;;;;;;;;12.60;59.60;;;;;;6193882;23;19919;-91
2021/12/06 11:06:01;;;;;;;;;;;12.70;60.00;;;;;;6190202;23;20327;-92
2021/12/06 11:08:28;;;;;;;;;;;12.80;59.90;;;;;;6190385;23;19978;-93
2021/12/06 11:11:02;;;;;;;;;;;12.80;59.50;;;;;;6166170;23;19915;-95
2021/12/06 11:13:30;;;;;;;;;;;12.80;59.40;;;;;;6194450;23;19923;-92
2021/12/06 11:16:16;;;;;;;;;;;12.90;59.10;;;;;;6193120;23;19912;-92
2021/12/06 11:18:47;;;;;;;;;;;13.00;59.40;;;;;;6194550;23;19955;-91
2021/12/06 11:21:18;;;;;;;;;;;13.00;58.80;;;;;;6219732;23;20225;-92
2021/12/06 11:24:00;;;;;;;;;;;13.00;58.80;;;;;;6226782;23;20324;-92
2021/12/06 11:26:26;;;;;;;;;;;13.00;58.80;;;;;;6197215;23;19912;-93
2021/12/06 11:28:52;;;;;;;;;;;13.10;58.30;;;;;;6194386;23;19914;-93
2021/12/06 11:31:18;;;;;;;;;;;13.10;58.60;;;;;;6196891;23;20273;-93
2021/12/06 11:33:55;;;;;;;;;;;13.10;58.90;;;;;;6193628;23;19939;-92
2021/12/06 11:36:25;;;;;;;;;;;13.20;59.20;;;;;;6219395;23;19927;-93
2021/12/06 11:38:57;;;;;;;;;;;13.20;58.50;;;;;;6221430;23;20219;-92
2021/12/06 11:41:22;;;;;;;;;;;13.20;58.20;;;;;;6194820;23;19966;-93
2021/12/06 11:43:48;;;;;;;;;;;13.20;57.70;;;;;;6193798;23;19916;-92
2021/12/06 11:46:25;;;;;;;;;;;13.20;58.00;;;;;;6220648;23;19926;-94
2021/12/06 11:48:50;;;;;;;;;;;13.20;57.90;;;;;;6196273;23;19920;-93
2021/12/06 11:51:16;;;;;;;;;;;13.20;57.60;;;;;;6195080;23;19911;-93
2021/12/06 11:53:43;;;;;;;;;;;13.20;57.30;;;;;;6219945;23;19943;-92
2021/12/06 11:56:14;;;;;;;;;;;13.20;57.40;;;;;;6192868;23;19979;-92
2021/12/06 11:58:46;;;;;;;;;;;13.10;57.00;;;;;;6192819;23;19896;-90
2021/12/06 12:01:12;;;;;;;;;;;13.10;57.30;;;;;;6195749;23;19908;-93
2021/12/06 12:03:38;;;;;;;;;;;13.00;56.90;;;;;;6192864;23;19919;-93
2021/12/06 12:06:20;;;;;;;;;;;13.00;57.30;;;;;;6193771;23;20236;-93
2021/12/06 12:08:45;;;;;;;;;;;12.90;56.60;;;;;;6193107;23;19922;-92
2021/12/06 12:11:11;;;;;;;;;;;12.90;57.00;;;;;;6193229;23;20285;-91
2021/12/06 12:13:37;;;;;;;;;;;12.90;57.80;;;;;;6194147;23;19958;-92
2021/12/06 12:16:05;;;;;;;;;;;12.90;58.00;;;;;;6194176;23;19904;-91
2021/12/06 12:18:31;;;;;;;;;;;12.80;57.20;;;;;;6219815;23;19970;-93
2021/12/06 12:20:58;;;;;;;;;;;12.70;56.80;;;;;;6194266;23;19911;-92
2021/12/06 12:23:24;;;;;;;;;;;12.70;57.40;;;;;;6196916;23;20028;-93
2021/12/06 12:25:57;;;;;;;;;;;12.50;57.00;;;;;;6193861;23;20308;-92
2021/12/06 12:28:28;;;;;;;;;;;12.40;56.80;;;;;;6219707;23;20550;-93
2021/12/06 12:30:56;;;;;;;;;;;12.30;56.70;;;;;;6192466;23;19908;-93
2021/12/06 12:33:22;;;;;;;;;;;12.10;57.10;;;;;;6191838;23;19966;-93
2021/12/06 12:35:50;;;;;;;;;;;12.00;56.60;;;;;;6189248;23;19912;-94
2021/12/06 12:38:19;;;;;;;;;;;11.90;57.30;;;;;;6191436;23;19991;-93
2021/12/06 12:40:47;;;;;;;;;;;11.80;57.20;;;;;;6191712;23;19946;-92
2021/12/06 12:43:15;;;;;;;;;;;11.80;57.50;;;;;;6217738;23;19918;-92
2021/12/06 12:45:48;;;;;;;;;;;11.70;57.70;;;;;;6219602;23;19912;-91
2021/12/06 12:48:16;;;;;;;;;;;11.60;57.80;;;;;;6193450;23;19912;-92
2021/12/06 12:50:59;;;;;;;;;;;11.50;57.60;;;;;;6218319;23;19911;-92
2021/12/06 12:53:24;;;;;;;;;;;11.50;57.80;;;;;;6220153;23;19920;-91
2021/12/06 12:55:51;;;;;;;;;;;11.40;58.00;;;;;;6217275;23;19958;-92
2021/12/06 12:58:24;;;;;;;;;;;11.30;58.10;;;;;;6217496;23;20225;-91
2021/12/06 13:00:51;;;;;;;;;;;11.30;57.90;;;;;;6220540;23;19908;-92
2021/12/06 13:03:35;;;;;;;;;;;11.30;58.00;;;;;;6219980;23;19915;-93
2021/12/06 13:06:18;;;;;;;;;;;11.20;58.20;;;;;;6193840;23;19908;-93
2021/12/06 13:08:44;;;;;;;;;;;11.20;58.40;;;;;;6219620;23;20034;-91
2021/12/06 13:11:10;;;;;;;;;;;11.10;58.60;;;;;;6219761;23;19904;-92
2021/12/06 13:13:45;;;;;;;;;;;11.10;58.50;;;;;;6193716;23;20006;-91
2021/12/06 13:16:36;;;;;;;;;;;11.10;58.60;;;;;;6193680;23;19994;-92
2021/12/06 13:19:12;;;;;;;;;;;11.10;58.40;;;;;;6220571;23;19995;-92
2021/12/06 13:21:58;;;;;;;;;;;11.00;59.00;;;;;;6226737;23;19966;-91
2021/12/06 13:24:29;;;;;;;;;;;11.00;58.70;;;;;;6221823;23;19900;-91
2021/12/06 13:26:57;;;;;;;;;;;11.00;58.60;;;;;;6221428;23;19904;-92
2021/12/06 13:29:26;;;;;;;;;;;11.00;58.60;;;;;;6222106;23;19995;-92
2021/12/06 13:31:52;;;;;;;;;;;11.00;58.90;;;;;;6196298;23;19896;-92
2021/12/06 13:34:19;;;;;;;;;;;10.90;58.70;;;;;;6220864;23;20280;-93
2021/12/06 13:36:46;;;;;;;;;;;10.90;58.90;;;;;;6214009;23;20235;-92
2021/12/06 13:39:31;;;;;;;;;;;11.00;59.00;;;;;;6251586;23;19911;-92
2021/12/06 13:41:57;;;;;;;;;;;10.90;58.70;;;;;;6225726;23;19903;-93
2021/12/06 13:44:37;;;;;;;;;;;10.90;58.80;;;;;;6223473;23;19950;-92
2021/12/06 13:47:07;;;;;;;;;;;10.90;59.00;;;;;;6250558;23;19908;-92
2021/12/06 13:49:33;;;;;;;;;;;10.90;58.80;;;;;;6224171;23;19903;-92
2021/12/06 13:52:00;;;;;;;;;;;10.80;58.60;;;;;;6225506;23;19935;-92
2021/12/06 13:54:28;;;;;;;;;;;10.80;58.90;;;;;;6224503;23;19911;-92
2021/12/06 13:56:58;;;;;;;;;;;10.80;58.70;;;;;;6224112;23;19908;-92
2021/12/06 13:59:41;;;;;;;;;;;10.80;58.80;;;;;;6253062;23;20614;-92
2021/12/06 14:02:08;;;;;;;;;;;10.80;58.60;;;;;;6225787;23;19904;-93
2021/12/06 14:04:36;;;;;;;;;;;10.70;58.80;;;;;;6225366;23;19903;-92
2021/12/06 14:07:02;;;;;;;;;;;10.70;58.70;;;;;;6225373;23;20387;-92
2021/12/06 14:09:29;;;;;;;;;;;10.60;58.50;;;;;;6225155;23;19916;-92
2021/12/06 14:11:55;;;;;;;;;;;10.60;58.60;;;;;;6251827;23;19939;-93
2021/12/06 14:14:22;;;;;;;;;;;10.60;58.60;;;;;;6224813;23;19915;-92
2021/12/06 14:16:47;;;;;;;;;;;10.60;58.50;;;;;;6224045;23;19908;-92
2021/12/06 14:19:13;;;;;;;;;;;10.50;58.20;;;;;;6249451;23;20217;-93
2021/12/06 14:21:40;;;;;;;;;;;10.50;58.30;;;;;;6225162;23;19918;-92
2021/12/06 14:24:06;;;;;;;;;;;10.40;58.30;;;;;;6252503;23;19912;-93
2021/12/06 14:26:33;;;;;;;;;;;10.30;58.40;;;;;;6224887;23;19904;-93
2021/12/06 14:28:59;;;;;;;;;;;10.30;58.40;;;;;;6223594;23;19919;-92
2021/12/06 14:31:25;;;;;;;;;;;10.20;58.40;;;;;;6225064;23;19926;-93
2021/12/06 14:33:50;;;;;;;;;;;10.20;58.30;;;;;;6224284;23;19994;-92
2021/12/06 14:36:20;;;;;;;;;;;10.20;58.20;;;;;;6219232;23;19912;-92